Time;durP1;ratioP1;P1;durP2;ratioP2;P2;SDS_P1;SDS_P2;PMS_P1;PMS_P2;Temp;Humidity;BMP_temperature;BMP_pressure;BME280_temperature;BME280_humidity;BME280_pressure;Samples;Min_cycle;Max_cycle;Signal;HPM_P1;HPM_P2
2021/07/13 00:00:27;;;;;;;13.50;2.90;;;16.50;99.90;;;;;;4972658;28;20478;-92
2021/07/13 00:02:52;;;;;;;7.65;2.60;;;16.50;99.90;;;;;;4977573;28;20026;-91
2021/07/13 00:05:21;;;;;;;9.57;2.33;;;16.50;99.90;;;;;;4976154;28;20049;-91
2021/07/13 00:07:49;;;;;;;9.63;2.17;;;16.60;99.90;;;;;;4977902;28;20029;-92
2021/07/13 00:10:22;;;;;;;8.38;2.30;;;16.50;99.90;;;;;;4992975;28;20501;-91
2021/07/13 00:12:48;;;;;;;13.45;2.95;;;16.60;99.90;;;;;;4977358;28;20088;-91
2021/07/13 00:15:21;;;;;;;10.00;2.72;;;16.50;99.90;;;;;;4975571;28;20045;-92
2021/07/13 00:17:48;;;;;;;;;;;16.50;99.90;;;;;;4997204;28;20025;-91
2021/07/13 00:20:14;;;;;;;11.30;2.90;;;16.60;99.90;;;;;;4996621;28;19909;-90
2021/07/13 00:22:50;;;;;;;10.85;2.33;;;16.60;99.90;;;;;;5028622;28;20117;-91
2021/07/13 00:25:17;;;;;;;10.90;2.67;;;16.60;99.90;;;;;;5012439;28;20113;-91
2021/07/13 00:27:54;;;;;;;18.10;2.38;;;16.60;99.90;;;;;;5012821;28;20040;-91
2021/07/13 00:30:21;;;;;;;14.02;3.10;;;16.70;99.90;;;;;;5029169;28;20026;-92
2021/07/13 00:32:47;;;;;;;10.98;2.50;;;16.70;99.90;;;;;;5028847;28;20519;-91
2021/07/13 00:35:14;;;;;;;6.57;2.40;;;16.70;99.90;;;;;;4995904;28;20018;-91
2021/07/13 00:37:42;;;;;;;7.57;2.38;;;16.70;99.90;;;;;;5029048;28;20077;-92
2021/07/13 00:40:10;;;;;;;12.55;2.38;;;16.70;99.90;;;;;;4995994;28;20026;-91
2021/07/13 00:42:36;;;;;;;9.43;2.67;;;16.70;99.90;;;;;;5028149;28;20053;-89
2021/07/13 00:45:04;;;;;;;10.88;3.38;;;16.70;99.90;;;;;;5018374;28;20022;-91
2021/07/13 00:47:30;;;;;;;11.73;2.45;;;16.70;99.90;;;;;;4994451;28;20034;-91
2021/07/13 00:49:59;;;;;;;9.07;2.22;;;16.70;99.90;;;;;;5029035;28;20029;-91
2021/07/13 00:52:26;;;;;;;12.38;2.38;;;16.70;99.90;;;;;;5028808;28;20042;-91
2021/07/13 00:54:53;;;;;;;14.02;2.83;;;16.70;99.90;;;;;;5014997;28;20041;-90
2021/07/13 00:57:19;;;;;;;14.20;2.70;;;16.60;99.90;;;;;;4976269;28;20030;-91
2021/07/13 00:59:45;;;;;;;17.08;2.53;;;16.60;99.90;;;;;;4973422;28;20366;-90
2021/07/13 01:02:14;;;;;;;10.93;2.20;;;16.60;99.90;;;;;;4973378;28;20031;-92
2021/07/13 01:04:43;;;;;;;12.02;2.40;;;16.60;99.90;;;;;;4972879;28;20027;-90
2021/07/13 01:07:16;;;;;;;16.15;2.08;;;16.60;99.90;;;;;;4972228;28;20030;-90
2021/07/13 01:10:04;;;;;;;12.93;2.40;;;16.60;99.90;;;;;;4971981;28;20473;-92
2021/07/13 01:12:43;;;;;;;9.95;1.95;;;16.60;99.90;;;;;;4973749;28;20117;-91
2021/07/13 01:15:10;;;;;;;11.80;2.03;;;16.60;99.90;;;;;;4974219;28;20023;-92
2021/07/13 01:17:38;;;;;;;12.20;2.13;;;16.60;99.90;;;;;;5026498;28;20045;-90
2021/07/13 01:20:41;;;;;;;12.73;2.70;;;16.60;99.90;;;;;;5014099;28;20022;-92
2021/07/13 01:23:21;;;;;;;9.30;2.00;;;16.60;99.90;;;;;;5010985;28;20030;-92
2021/07/13 01:25:56;;;;;;;15.80;2.40;;;16.50;99.90;;;;;;5011696;28;20041;-91
2021/07/13 01:28:26;;;;;;;10.82;2.38;;;16.50;99.90;;;;;;5012098;28;20374;-92
2021/07/13 01:30:58;;;;;;;14.93;2.78;;;16.50;99.90;;;;;;5027899;28;20060;-91
2021/07/13 01:33:27;;;;;;;10.55;2.25;;;16.40;99.90;;;;;;4995514;28;20769;-92
2021/07/13 01:36:04;;;;;;;12.90;2.97;;;16.40;99.90;;;;;;5027671;28;20022;-91
2021/07/13 01:38:34;;;;;;;12.10;2.17;;;16.30;99.90;;;;;;5027401;28;20559;-91
2021/07/13 01:41:04;;;;;;;6.07;2.15;;;16.20;99.90;;;;;;5027686;28;20076;-91
2021/07/13 01:43:31;;;;;;;9.32;2.42;;;16.10;99.90;;;;;;5027521;28;20551;-91
2021/07/13 01:46:00;;;;;;;8.85;2.78;;;16.10;99.90;;;;;;5011986;28;20018;-90
2021/07/13 01:48:28;;;;;;;8.98;2.30;;;16.10;99.90;;;;;;4993094;28;20034;-90
2021/07/13 01:50:55;;;;;;;16.65;2.45;;;16.10;99.90;;;;;;4975391;28;20022;-92
2021/07/13 01:53:22;;;;;;;10.00;3.05;;;16.00;99.90;;;;;;4976364;28;20022;-91
2021/07/13 01:55:48;;;;;;;11.02;2.33;;;16.00;99.90;;;;;;4994442;28;20026;-91
2021/07/13 01:58:16;;;;;;;16.58;2.33;;;16.00;99.90;;;;;;4994770;28;20392;-91
2021/07/13 02:00:44;;;;;;;10.50;2.92;;;16.00;99.90;;;;;;5009701;28;20481;-92
2021/07/13 02:03:10;;;;;;;11.75;2.60;;;16.00;99.90;;;;;;4991577;28;20026;-92
2021/07/13 02:05:38;;;;;;;14.50;2.55;;;16.00;99.90;;;;;;5006648;28;20062;-91
2021/07/13 02:08:05;;;;;;;18.35;3.00;;;15.90;99.90;;;;;;4993802;28;20041;-91
2021/07/13 02:10:32;;;;;;;15.48;2.90;;;15.90;99.90;;;;;;4988367;28;20037;-91
2021/07/13 02:12:59;;;;;;;13.90;3.08;;;15.90;99.90;;;;;;4999894;28;20050;-91
2021/07/13 02:15:25;;;;;;;15.75;2.70;;;15.90;99.90;;;;;;5006302;28;20275;-92
2021/07/13 02:17:52;;;;;;;18.23;3.15;;;15.90;99.90;;;;;;5026706;28;20107;-91
2021/07/13 02:20:20;;;;;;;16.08;2.75;;;15.90;99.90;;;;;;5027675;28;20547;-92
2021/07/13 02:22:46;;;;;;;18.63;3.13;;;15.80;99.90;;;;;;4993750;28;20033;-91
2021/07/13 02:25:14;;;;;;;16.23;3.03;;;15.80;99.90;;;;;;5026749;28;20026;-91
2021/07/13 02:27:53;;;;;;;17.33;2.80;;;15.80;99.90;;;;;;4994658;28;20120;-91
2021/07/13 02:30:19;;;;;;;13.93;2.78;;;15.80;99.90;;;;;;5027184;28;20026;-91
2021/07/13 02:32:52;;;;;;;11.82;2.90;;;15.80;99.90;;;;;;5026818;28;20026;-91
2021/07/13 02:35:33;;;;;;;17.27;3.38;;;15.80;99.90;;;;;;5027318;28;20052;-91
2021/07/13 02:38:01;;;;;;;16.02;2.90;;;15.80;99.90;;;;;;4993994;28;20030;-91
2021/07/13 02:40:27;;;;;;;14.25;3.03;;;15.70;99.90;;;;;;5026947;28;20026;-91
2021/07/13 02:42:53;;;;;;;12.77;3.08;;;15.70;99.90;;;;;;5026324;28;20058;-91
2021/07/13 02:45:22;;;;;;;14.07;2.95;;;15.70;99.90;;;;;;5015991;28;20030;-92
2021/07/13 02:47:48;;;;;;;12.70;2.80;;;15.70;99.90;;;;;;4974709;28;20034;-91
2021/07/13 02:50:17;;;;;;;10.85;2.85;;;15.70;99.90;;;;;;4974577;28;20037;-91
2021/07/13 02:52:44;;;;;;;14.68;3.65;;;15.70;99.90;;;;;;4974976;28;20549;-91
2021/07/13 02:55:15;;;;;;;14.43;3.10;;;15.70;99.90;;;;;;4990709;28;20121;-92
2021/07/13 02:57:44;;;;;;;18.88;2.65;;;15.70;99.90;;;;;;5009975;28;20073;-91
2021/07/13 03:00:11;;;;;;;10.30;2.85;;;15.60;99.90;;;;;;5007073;28;20022;-92
2021/07/13 03:02:39;;;;;;;16.02;3.28;;;15.60;99.90;;;;;;4974656;28;20030;-91
2021/07/13 03:05:06;;;;;;;12.50;3.03;;;15.60;99.90;;;;;;5007439;28;20042;-92
2021/07/13 03:07:33;;;;;;;12.25;3.00;;;15.60;99.90;;;;;;4975050;28;20026;-90
2021/07/13 03:10:00;;;;;;;11.77;2.80;;;15.50;99.90;;;;;;4977591;28;20030;-91
2021/07/13 03:12:27;;;;;;;13.20;3.08;;;15.50;99.90;;;;;;4977882;28;20476;-91
2021/07/13 03:14:54;;;;;;;14.80;3.50;;;15.50;99.90;;;;;;4994158;28;20031;-91
2021/07/13 03:17:21;;;;;;;12.38;2.70;;;15.50;99.90;;;;;;5027646;28;20042;-92
2021/07/13 03:19:49;;;;;;;15.98;3.30;;;15.50;99.90;;;;;;5030065;28;20048;-91
2021/07/13 03:22:38;;;;;;;12.52;3.05;;;15.50;99.90;;;;;;5029598;28;20548;-91
2021/07/13 03:25:05;;;;;;;18.40;3.53;;;15.50;99.90;;;;;;5013823;28;20053;-92
2021/07/13 03:27:32;;;;;;;10.80;2.90;;;15.40;99.90;;;;;;5029961;28;20022;-90
2021/07/13 03:30:00;;;;;;;15.70;3.00;;;15.40;99.90;;;;;;5015076;28;20029;-92
2021/07/13 03:32:27;;;;;;;13.65;3.08;;;15.40;99.90;;;;;;5030278;28;20061;-91
2021/07/13 03:34:55;;;;;;;15.13;2.97;;;15.40;99.90;;;;;;5030402;28;20116;-91
2021/07/13 03:37:21;;;;;;;13.07;3.05;;;15.40;99.90;;;;;;5029616;28;20029;-91
2021/07/13 03:39:48;;;;;;;15.07;3.22;;;15.30;99.90;;;;;;5013094;28;20026;-91
2021/07/13 03:42:16;;;;;;;15.57;3.30;;;15.30;99.90;;;;;;5029624;28;20037;-91
2021/07/13 03:44:42;;;;;;;14.65;3.40;;;15.30;99.90;;;;;;5023231;28;20022;-91
2021/07/13 03:47:17;;;;;;;17.73;3.38;;;15.30;99.90;;;;;;4991773;28;20034;-91
2021/07/13 03:49:43;;;;;;;17.23;3.65;;;15.30;99.90;;;;;;5030323;28;20448;-92
2021/07/13 03:52:10;;;;;;;17.73;3.30;;;15.30;99.90;;;;;;5029744;28;20029;-91
2021/07/13 03:54:35;;;;;;;14.45;3.15;;;15.30;99.90;;;;;;5018058;28;20425;-91
2021/07/13 03:57:01;;;;;;;23.60;3.97;;;15.20;99.90;;;;;;5010283;28;20030;-90
2021/07/13 03:59:28;;;;;;;13.35;3.35;;;15.20;99.90;;;;;;5009113;28;20499;-91
2021/07/13 04:01:55;;;;;;;12.05;2.92;;;15.20;99.90;;;;;;4976664;28;20049;-92
2021/07/13 04:04:21;;;;;;;16.63;3.63;;;15.20;99.90;;;;;;4977369;28;20030;-90
2021/07/13 04:06:47;;;;;;;19.38;4.05;;;15.20;99.90;;;;;;4975361;28;20511;-90
2021/07/13 04:09:13;;;;;;;8.63;3.92;;;15.20;99.90;;;;;;4975582;28;20030;-90
2021/07/13 04:11:38;;;;;;;12.93;3.22;;;15.10;99.90;;;;;;4976775;28;20070;-91
2021/07/13 04:14:05;;;;;;;16.33;3.88;;;15.10;99.90;;;;;;4975563;28;20034;-91
2021/07/13 04:16:31;;;;;;;12.57;3.60;;;15.10;99.90;;;;;;4976830;28;20041;-90
2021/07/13 04:18:58;;;;;;;12.75;3.63;;;15.10;99.90;;;;;;4975644;28;20062;-91
2021/07/13 04:21:24;;;;;;;16.58;3.63;;;15.10;99.90;;;;;;4976371;28;20027;-91
2021/07/13 04:23:50;;;;;;;12.88;3.40;;;15.10;99.90;;;;;;4990923;28;20022;-90
2021/07/13 04:26:16;;;;;;;17.77;3.60;;;15.10;99.90;;;;;;5028711;28;20472;-90
2021/07/13 04:28:42;;;;;;;17.33;3.83;;;15.10;99.90;;;;;;4995850;28;20084;-89
2021/07/13 04:31:08;;;;;;;13.38;3.67;;;15.10;99.90;;;;;;5028331;28;20038;-90
2021/07/13 04:33:34;;;;;;;13.05;3.88;;;15.20;99.90;;;;;;5034272;28;20049;-90
2021/07/13 04:36:00;;;;;;;18.13;3.45;;;15.20;99.90;;;;;;4996045;28;20396;-91
2021/07/13 04:38:26;;;;;;;12.77;3.72;;;15.20;99.90;;;;;;4994896;28;20030;-90
2021/07/13 04:40:52;;;;;;;17.60;3.80;;;15.30;99.90;;;;;;4994756;28;20040;-90
2021/07/13 04:43:18;;;;;;;13.02;3.75;;;15.40;99.90;;;;;;5028049;28;20535;-91
2021/07/13 04:45:43;;;;;;;16.33;3.80;;;15.40;99.90;;;;;;5012017;28;20034;-91
2021/07/13 04:48:09;;;;;;;14.30;3.70;;;15.50;99.90;;;;;;4988134;28;20026;-90
2021/07/13 04:50:36;;;;;;;17.55;4.25;;;15.50;99.90;;;;;;4975879;28;20502;-90
2021/07/13 04:53:04;;;;;;;15.15;3.83;;;15.50;99.90;;;;;;4991896;28;20033;-90
2021/07/13 04:55:30;;;;;;;14.38;4.22;;;15.60;99.90;;;;;;5008392;28;20112;-90
2021/07/13 04:57:56;;;;;;;13.82;3.60;;;15.60;99.90;;;;;;5025310;28;20029;-91
2021/07/13 05:00:22;;;;;;;14.68;3.70;;;15.70;99.90;;;;;;5009718;28;20567;-91
2021/07/13 05:02:47;;;;;;;15.32;4.00;;;15.70;99.90;;;;;;5008464;28;20022;-91
2021/07/13 05:05:14;;;;;;;11.93;4.03;;;15.80;99.90;;;;;;4976637;28;20030;-91
2021/07/13 05:07:41;;;;;;;16.30;4.35;;;15.80;99.90;;;;;;4975039;28;20512;-91
2021/07/13 05:10:12;;;;;;;17.88;5.65;;;15.90;99.90;;;;;;4993297;28;20578;-91
2021/07/13 05:12:39;;;;;;;13.57;5.28;;;15.90;99.90;;;;;;4976817;28;20027;-91
2021/07/13 05:15:10;;;;;;;19.75;3.55;;;16.00;99.90;;;;;;4975083;28;20125;-91
2021/07/13 05:17:38;;;;;;;18.77;4.07;;;16.00;99.90;;;;;;4966008;28;20041;-91
2021/07/13 05:20:09;;;;;;;17.75;4.18;;;16.00;99.90;;;;;;4963566;28;20027;-91
2021/07/13 05:22:35;;;;;;;19.48;3.28;;;16.10;99.90;;;;;;4965327;28;20101;-90
2021/07/13 05:25:03;;;;;;;10.52;2.70;;;16.20;99.90;;;;;;5028780;28;20050;-91
2021/07/13 05:27:32;;;;;;;19.77;3.63;;;16.20;99.90;;;;;;5028036;28;20484;-91
2021/07/13 05:29:58;;;;;;;13.20;3.63;;;16.30;99.90;;;;;;5027349;28;20076;-90
2021/07/13 05:32:24;;;;;;;14.60;4.40;;;16.40;99.90;;;;;;5027893;28;20029;-91
2021/07/13 05:34:50;;;;;;;17.25;4.45;;;16.60;99.90;;;;;;5028458;28;20025;-90
2021/07/13 05:37:18;;;;;;;11.13;3.47;;;16.80;99.90;;;;;;5007771;28;20467;-90
2021/07/13 05:39:44;;;;;;;14.73;4.13;;;16.90;99.90;;;;;;4991786;28;20109;-90
2021/07/13 05:42:11;;;;;;;11.45;3.60;;;16.90;99.90;;;;;;4983000;28;20456;-91
2021/07/13 05:44:36;;;;;;;15.15;3.47;;;17.00;99.90;;;;;;5003754;28;20034;-91
2021/07/13 05:47:02;;;;;;;12.18;2.60;;;17.10;99.90;;;;;;5005019;28;20026;-91
2021/07/13 05:49:28;;;;;;;10.50;2.47;;;17.10;99.90;;;;;;5027458;28;20451;-91
2021/07/13 05:51:54;;;;;;;12.60;2.50;;;17.10;99.90;;;;;;5009296;28;20034;-91
2021/07/13 05:54:20;;;;;;;11.50;2.63;;;17.00;99.90;;;;;;4982849;28;21286;-90
2021/07/13 05:56:46;;;;;;;10.07;2.50;;;17.00;99.90;;;;;;4993666;28;20574;-90
2021/07/13 05:59:12;;;;;;;10.48;2.63;;;16.90;99.90;;;;;;4978664;28;20485;-90
2021/07/13 06:01:39;;;;;;;7.13;2.08;;;16.90;99.90;;;;;;4970042;28;20551;-91
2021/07/13 06:04:05;;;;;;;8.55;2.60;;;16.90;99.90;;;;;;4974409;28;20480;-90
2021/07/13 06:06:31;;;;;;;10.43;3.20;;;17.00;99.90;;;;;;4991102;28;20041;-91
2021/07/13 06:09:10;;;;;;;13.02;2.70;;;17.10;99.90;;;;;;4982180;28;20030;-92
2021/07/13 06:11:36;;;;;;;10.50;2.78;;;17.20;99.90;;;;;;5018790;28;20042;-90
2021/07/13 06:14:02;;;;;;;8.93;3.20;;;17.40;99.90;;;;;;5022567;28;20049;-91
2021/07/13 06:16:28;;;;;;;16.73;2.95;;;17.50;99.90;;;;;;5013966;28;20026;-91
2021/07/13 06:18:54;;;;;;;11.65;3.03;;;17.60;99.90;;;;;;5026769;28;20022;-91
2021/07/13 06:21:20;;;;;;;9.65;3.13;;;17.70;99.90;;;;;;4992930;28;20574;-90
2021/07/13 06:23:46;;;;;;;14.93;2.78;;;17.80;99.90;;;;;;5025339;28;20034;-91
2021/07/13 06:26:12;;;;;;;11.15;2.83;;;17.80;99.90;;;;;;5007837;28;20019;-91
2021/07/13 06:28:48;;;;;;;15.90;2.95;;;17.60;99.90;;;;;;4987193;28;20027;-91
2021/07/13 06:31:24;;;;;;;16.75;2.75;;;17.60;99.90;;;;;;5013355;28;20026;-91
2021/07/13 06:33:50;;;;;;;17.95;2.92;;;17.70;99.90;;;;;;5009453;28;20045;-91
2021/07/13 06:36:27;;;;;;;11.52;3.72;;;17.70;99.90;;;;;;4984479;28;20030;-92
2021/07/13 06:38:52;;;;;;;13.30;2.72;;;17.80;99.90;;;;;;4974648;28;20030;-91
2021/07/13 06:41:19;;;;;;;10.60;2.30;;;17.90;99.90;;;;;;4978162;28;20025;-92
2021/07/13 06:43:47;;;;;;;9.95;2.53;;;17.90;99.90;;;;;;5007839;28;20050;-92
2021/07/13 06:46:13;;;;;;;16.38;2.95;;;17.90;99.90;;;;;;4974994;28;20030;-91
2021/07/13 06:48:39;;;;;;;9.65;2.30;;;17.90;99.90;;;;;;4977737;28;20481;-93
2021/07/13 06:51:15;;;;;;;12.40;2.50;;;17.90;99.90;;;;;;5014007;28;20024;-93
2021/07/13 06:53:41;;;;;;;12.45;2.60;;;17.80;99.90;;;;;;4981648;28;20113;-94
2021/07/13 06:56:07;;;;;;;13.15;3.15;;;17.60;99.90;;;;;;5015027;28;20537;-94
2021/07/13 06:58:33;;;;;;;14.40;2.63;;;17.50;99.90;;;;;;4980065;28;20023;-93
2021/07/13 07:00:59;;;;;;;8.98;3.03;;;17.30;99.90;;;;;;4982944;28;20489;-92
2021/07/13 07:03:25;;;;;;;8.82;2.47;;;17.30;99.90;;;;;;4978861;28;20542;-91
2021/07/13 07:05:51;;;;;;;11.98;3.00;;;17.30;99.90;;;;;;4993143;28;20064;-91
2021/07/13 07:08:16;;;;;;;9.23;2.38;;;17.30;99.90;;;;;;4993607;28;20019;-94
2021/07/13 07:10:42;;;;;;;8.77;2.50;;;17.30;99.90;;;;;;5011907;28;20033;-91
2021/07/13 07:13:08;;;;;;;9.35;1.95;;;17.40;99.90;;;;;;5011238;28;20052;-91
2021/07/13 07:15:37;;;;;;;10.20;2.13;;;17.50;99.90;;;;;;4987277;28;20069;-93
2021/07/13 07:18:03;;;;;;;7.45;2.00;;;17.60;99.90;;;;;;4983032;28;20040;-92
2021/07/13 07:20:40;;;;;;;5.00;1.75;;;17.70;99.90;;;;;;5029975;28;20080;-92
2021/07/13 07:23:06;;;;;;;4.85;1.77;;;17.80;99.90;;;;;;4977001;28;20022;-93
2021/07/13 07:25:32;;;;;;;12.00;2.20;;;17.80;99.90;;;;;;5011838;28;20079;-91
2021/07/13 07:27:59;;;;;;;5.82;1.63;;;17.80;99.90;;;;;;4984178;28;20460;-90
2021/07/13 07:30:28;;;;;;;4.10;1.50;;;17.80;99.90;;;;;;5012591;28;20038;-92
2021/07/13 07:32:55;;;;;;;6.97;1.63;;;17.60;99.90;;;;;;4983148;28;20054;-92
2021/07/13 07:35:21;;;;;;;9.70;1.88;;;17.50;99.90;;;;;;5014319;28;20031;-94
2021/07/13 07:37:47;;;;;;;6.45;1.45;;;17.40;99.90;;;;;;5014371;28;20084;-93
2021/07/13 07:40:18;;;;;;;6.40;1.60;;;17.50;99.90;;;;;;4991595;28;20022;-93
2021/07/13 07:42:56;;;;;;;5.00;1.45;;;17.40;99.90;;;;;;4981978;28;20050;-92
2021/07/13 07:45:23;;;;;;;3.00;1.80;;;17.20;99.90;;;;;;5020144;28;20065;-94
2021/07/13 07:47:52;;;;;;;5.25;2.60;;;16.80;99.90;;;;;;5015521;28;20034;-91
2021/07/13 07:50:20;;;;;;;11.75;3.00;;;16.40;99.90;;;;;;4971770;28;20031;-92
2021/07/13 07:52:46;;;;;;;7.32;3.38;;;16.20;99.90;;;;;;4978095;28;20030;-91
2021/07/13 07:55:13;;;;;;;7.55;3.63;;;16.00;99.90;;;;;;4976502;28;20117;-92
2021/07/13 07:57:49;;;;;;;13.90;4.30;;;15.80;99.90;;;;;;4980747;28;20026;-92
2021/07/13 08:00:17;;;;;;;12.30;4.13;;;15.80;99.90;;;;;;5012389;28;20393;-92
2021/07/13 08:02:43;;;;;;;8.85;4.07;;;15.80;99.90;;;;;;4984041;28;20085;-91
2021/07/13 08:05:10;;;;;;;6.35;4.07;;;15.90;99.90;;;;;;5015643;28;20052;-94
2021/07/13 08:07:36;;;;;;;10.20;3.65;;;15.90;99.90;;;;;;4974890;28;20045;-91
2021/07/13 08:10:06;;;;;;;10.98;3.78;;;16.00;99.90;;;;;;4999508;28;20125;-94
2021/07/13 08:12:32;;;;;;;12.30;4.90;;;16.20;99.90;;;;;;5016341;28;20030;-93
2021/07/13 08:15:10;;;;;;;12.68;5.57;;;16.40;99.90;;;;;;4977287;28;20041;-92
2021/07/13 08:17:47;;;;;;;12.93;4.63;;;16.70;99.90;;;;;;4973821;28;20039;-94
2021/07/13 08:20:23;;;;;;;8.52;4.30;;;17.20;99.90;;;;;;4976543;28;20022;-92
2021/07/13 08:22:50;;;;;;;10.50;5.05;;;17.30;99.90;;;;;;4986137;28;20492;-91
2021/07/13 08:25:18;;;;;;;8.32;4.10;;;17.30;99.90;;;;;;4977873;28;20050;-93
2021/07/13 08:27:45;;;;;;;10.05;3.63;;;17.20;99.90;;;;;;4973867;28;20070;-91
2021/07/13 08:30:11;;;;;;;10.68;3.85;;;17.20;99.90;;;;;;4995368;28;20036;-93
2021/07/13 08:32:37;;;;;;;9.40;3.97;;;17.30;99.90;;;;;;4968321;28;20031;-91
2021/07/13 08:35:05;;;;;;;9.15;3.75;;;17.40;99.90;;;;;;4979723;28;20399;-90
2021/07/13 08:37:32;;;;;;;11.27;4.35;;;17.40;99.90;;;;;;4980809;28;20129;-91
2021/07/13 08:40:00;;;;;;;14.00;4.53;;;17.50;99.90;;;;;;4981057;28;20077;-91
2021/07/13 08:42:25;;;;;;;10.18;4.45;;;17.60;99.90;;;;;;4991819;28;20038;-92
2021/07/13 08:44:51;;;;;;;11.52;4.30;;;17.70;99.90;;;;;;4971917;28;20577;-93
2021/07/13 08:47:35;;;;;;;9.05;4.35;;;17.50;99.90;;;;;;4978837;28;20073;-92
2021/07/13 08:50:15;;;;;;;14.48;4.50;;;17.50;99.90;;;;;;4977508;28;20038;-92
2021/07/13 08:52:52;;;;;;;10.57;4.63;;;17.40;99.90;;;;;;4978080;28;20062;-93
2021/07/13 08:55:28;;;;;;;14.13;4.93;;;17.30;99.90;;;;;;4976092;28;20041;-92
2021/07/13 08:57:54;;;;;;;7.78;4.43;;;17.30;99.90;;;;;;5008889;28;20026;-91
2021/07/13 09:00:20;;;;;;;14.27;4.93;;;17.20;99.90;;;;;;4975800;28;20468;-91
2021/07/13 09:03:07;;;;;;;14.85;4.93;;;17.10;99.90;;;;;;4976003;28;20034;-91
2021/07/13 09:06:04;;;;;;;12.95;5.35;;;17.10;99.90;;;;;;4999997;28;20026;-92
2021/07/13 09:08:32;;;;;;;16.63;5.45;;;17.10;99.90;;;;;;4969671;28;20464;-91
2021/07/13 09:11:13;;;;;;;11.95;5.72;;;17.20;99.90;;;;;;4972642;28;20029;-92
2021/07/13 09:13:41;;;;;;;15.82;6.13;;;17.20;99.90;;;;;;4999613;28;20073;-91
2021/07/13 09:16:10;;;;;;;22.52;6.35;;;17.10;99.90;;;;;;5010210;28;20054;-92
2021/07/13 09:18:41;;;;;;;17.65;6.78;;;17.10;99.90;;;;;;4970551;28;20054;-91
2021/07/13 09:21:10;;;;;;;16.23;7.10;;;17.10;99.90;;;;;;4972212;28;20026;-91
2021/07/13 09:24:05;;;;;;;18.50;6.90;;;17.20;99.90;;;;;;5002078;28;20085;-91
2021/07/13 09:26:47;;;;;;;17.83;6.60;;;17.30;99.90;;;;;;4971910;28;20040;-91
2021/07/13 09:29:52;;;;;;;16.40;5.60;;;17.70;99.90;;;;;;4971436;28;20125;-91
2021/07/13 09:32:31;;;;;;;13.45;4.68;;;18.50;99.90;;;;;;4971098;28;20069;-90
2021/07/13 09:35:01;;;;;;;6.90;4.22;;;18.70;99.90;;;;;;4973119;28;20026;-92
2021/07/13 09:37:29;;;;;;;7.45;3.55;;;18.70;99.90;;;;;;4992266;28;20042;-91
2021/07/13 09:40:04;;;;;;;5.90;4.45;;;18.40;99.90;;;;;;4988276;28;20022;-91
2021/07/13 09:42:31;;;;;;;9.80;4.90;;;18.40;99.90;;;;;;4995643;28;20061;-91
2021/07/13 09:45:16;;;;;;;6.95;4.30;;;18.60;99.90;;;;;;4973791;28;20026;-91
2021/07/13 09:47:42;;;;;;;8.82;4.40;;;18.60;99.90;;;;;;4972171;28;20058;-91
2021/07/13 09:50:10;;;;;;;5.15;4.18;;;18.70;99.90;;;;;;4999998;28;20064;-91
2021/07/13 09:52:39;;;;;;;10.35;4.20;;;18.90;99.90;;;;;;4978418;28;20061;-92
2021/07/13 09:55:17;;;;;;;6.95;4.78;;;18.80;99.90;;;;;;5012795;28;20056;-93
2021/07/13 09:57:43;;;;;;;9.27;3.97;;;18.80;99.90;;;;;;4971321;28;20034;-91
2021/07/13 10:00:10;;;;;;;7.88;4.32;;;18.60;99.90;;;;;;4983500;28;20511;-92
2021/07/13 10:02:37;;;;;;;7.95;4.40;;;18.50;99.90;;;;;;4975902;28;20126;-92
2021/07/13 10:05:04;;;;;;;9.00;4.85;;;18.50;99.90;;;;;;5005744;28;20034;-92
2021/07/13 10:07:30;;;;;;;7.07;4.40;;;18.30;99.90;;;;;;4967937;28;20528;-93
2021/07/13 10:10:01;;;;;;;7.85;4.68;;;18.20;99.90;;;;;;4972173;28;20030;-92
2021/07/13 10:12:28;;;;;;;9.20;5.05;;;18.30;99.90;;;;;;4983456;28;20042;-93
2021/07/13 10:14:59;;;;;;;8.77;5.07;;;18.30;99.90;;;;;;5012346;28;20053;-92
2021/07/13 10:17:30;;;;;;;10.18;4.70;;;18.30;99.90;;;;;;4979434;28;20041;-92
2021/07/13 10:20:10;;;;;;;9.38;5.38;;;18.40;99.90;;;;;;5011063;28;20057;-91
2021/07/13 10:22:42;;;;;;;9.68;5.20;;;18.40;99.90;;;;;;4979616;28;20493;-91
2021/07/13 10:25:09;;;;;;;12.38;5.28;;;18.30;99.90;;;;;;4982093;28;20026;-91
2021/07/13 10:27:40;;;;;;;11.30;5.70;;;18.30;99.90;;;;;;5007718;28;20058;-92
2021/07/13 10:30:08;;;;;;;9.65;4.78;;;18.30;99.90;;;;;;4973402;28;20042;-91
2021/07/13 10:32:44;;;;;;;6.53;4.85;;;18.30;99.90;;;;;;4975889;28;20034;-91
2021/07/13 10:35:30;;;;;;;10.18;5.80;;;18.40;99.90;;;;;;4989551;28;20452;-91
2021/07/13 10:38:15;;;;;;;28.13;10.55;;;18.40;99.90;;;;;;5006907;28;20029;-92
2021/07/13 10:40:42;;;;;;;7.20;3.90;;;18.40;99.90;;;;;;4974082;28;20026;-92
2021/07/13 10:43:22;;;;;;;6.43;4.50;;;18.60;99.90;;;;;;5017216;28;20042;-91
2021/07/13 10:46:07;;;;;;;6.28;3.50;;;19.00;99.90;;;;;;5009846;28;20113;-92
2021/07/13 10:48:33;;;;;;;4.43;2.90;;;19.20;99.90;;;;;;4999365;28;20031;-92
2021/07/13 10:51:13;;;;;;;5.75;3.45;;;19.30;99.90;;;;;;4974945;28;20062;-91
2021/07/13 10:53:40;;;;;;;5.00;3.65;;;19.20;99.90;;;;;;5012260;28;20026;-92
2021/07/13 10:56:11;;;;;;;4.53;3.45;;;19.00;99.90;;;;;;4976509;28;20037;-91
2021/07/13 10:58:46;;;;;;;7.57;3.90;;;18.80;99.90;;;;;;4974069;28;20031;-91
2021/07/13 11:01:28;;;;;;;5.60;3.28;;;18.60;99.90;;;;;;5017627;28;20154;-91
2021/07/13 11:03:59;;;;;;;7.55;3.80;;;18.40;99.90;;;;;;4987580;28;20044;-92
2021/07/13 11:06:46;;;;;;;8.00;4.03;;;18.30;99.90;;;;;;5005916;28;20030;-92
2021/07/13 11:09:35;;;;;;;8.07;3.95;;;18.70;99.90;;;;;;4969027;28;20033;-92
2021/07/13 11:12:20;;;;;;;8.48;3.20;;;19.10;99.90;;;;;;5024092;28;20379;-94
2021/07/13 11:15:03;;;;;;;4.05;3.42;;;19.50;99.90;;;;;;5018839;28;20034;-95
2021/07/13 11:17:55;;;;;;;12.75;6.72;;;19.80;99.90;;;;;;5035409;28;20033;-94
2021/07/13 11:20:50;;;;;;;9.52;3.58;;;20.30;99.90;;;;;;5008088;28;20090;-93
2021/07/13 11:23:40;;;;;;;8.93;4.00;;;20.30;99.90;;;;;;4983744;28;20089;-93
2021/07/13 11:26:33;;;;;;;11.02;3.67;;;19.80;99.90;;;;;;4990996;28;20077;-93
2021/07/13 11:29:23;;;;;;;14.52;5.57;;;19.50;99.90;;;;;;4982517;28;20030;-93
2021/07/13 11:31:52;;;;;;;27.02;8.77;;;19.60;99.90;;;;;;4985598;28;20077;-93
2021/07/13 11:34:49;;;;;;;26.88;7.85;;;19.80;99.90;;;;;;5026261;28;20172;-94
2021/07/13 11:37:54;;;;;;;22.80;6.90;;;19.70;99.90;;;;;;5014965;28;20130;-95
2021/07/13 11:40:30;;;;;;;10.52;4.65;;;21.00;99.90;;;;;;4978701;28;20026;-93
2021/07/13 11:43:01;;;;;;;6.43;2.97;;;23.40;99.90;;;;;;4977913;28;20070;-93
2021/07/13 11:45:39;;;;;;;9.77;2.90;;;24.80;99.90;;;;;;4952973;28;20046;-93
2021/07/13 11:48:08;;;;;;;6.25;2.70;;;23.70;99.90;;;;;;4970348;28;20037;-94
2021/07/13 11:50:45;;;;;;;8.13;2.65;;;22.40;99.90;;;;;;4941705;28;20095;-92
2021/07/13 11:53:33;;;;;;;3.58;2.10;;;21.40;99.90;;;;;;4951595;28;20042;-93
2021/07/13 11:56:12;;;;;;;6.43;3.00;;;21.10;99.90;;;;;;4966401;28;20169;-92
2021/07/13 11:58:41;;;;;;;8.27;2.70;;;21.10;99.90;;;;;;4961391;28;20035;-93
2021/07/13 12:01:29;;;;;;;5.13;2.45;;;20.90;99.90;;;;;;4971009;28;20054;-93
2021/07/13 12:04:15;;;;;;;7.53;2.70;;;20.50;99.90;;;;;;4972730;28;20023;-93
2021/07/13 12:07:00;;;;;;;8.65;3.10;;;20.20;99.90;;;;;;4964694;28;20042;-93
2021/07/13 12:09:31;;;;;;;10.82;2.63;;;20.50;99.90;;;;;;4962342;28;20064;-94
2021/07/13 12:12:09;;;;;;;8.70;2.63;;;22.20;99.90;;;;;;4967569;28;20058;-94
2021/07/13 12:14:37;;;;;;;5.47;2.55;;;22.10;99.90;;;;;;4963849;28;20137;-93
2021/07/13 12:17:21;;;;;;;12.38;2.28;;;23.10;99.90;;;;;;4954454;28;20042;-93
2021/07/13 12:19:50;;;;;;;10.70;2.92;;;23.20;99.90;;;;;;4952473;28;20020;-93
2021/07/13 12:22:29;;;;;;;7.82;2.47;;;24.00;99.90;;;;;;4954515;28;20027;-93
2021/07/13 12:25:28;;;;;;;6.53;2.20;;;24.80;99.90;;;;;;4961388;28;20358;-94
2021/07/13 12:28:22;;;;;;;11.52;2.60;;;25.40;99.90;;;;;;4970752;28;20047;-94
2021/07/13 12:30:51;;;;;;;5.63;2.47;;;25.10;99.90;;;;;;4953231;28;20023;-92
2021/07/13 12:33:33;;;;;;;10.13;2.30;;;24.30;99.90;;;;;;4961593;28;20129;-93
2021/07/13 12:36:15;;;;;;;7.80;2.60;;;22.90;99.90;;;;;;4951483;28;20027;-94
2021/07/13 12:38:53;;;;;;;12.45;2.40;;;21.90;99.90;;;;;;4967407;28;20035;-93
2021/07/13 12:41:32;;;;;;;6.13;2.65;;;20.80;99.90;;;;;;4968917;28;20113;-94
2021/07/13 12:43:58;;;;;;;7.13;2.63;;;20.80;99.90;;;;;;4965017;28;20514;-94
2021/07/13 12:46:35;;;;;;;9.05;2.97;;;20.80;99.90;;;;;;4962463;28;20026;-93
2021/07/13 12:49:10;;;;;;;11.73;3.03;;;21.70;99.90;;;;;;4955457;28;20066;-94
2021/07/13 12:51:41;;;;;;;10.45;2.97;;;21.10;99.90;;;;;;4951596;28;20599;-92
2021/07/13 12:54:08;;;;;;;11.40;2.70;;;20.80;99.90;;;;;;4968095;28;20023;-93
2021/07/13 12:56:36;;;;;;;9.82;3.22;;;20.50;99.90;;;;;;4965267;28;20178;-94
2021/07/13 12:59:18;;;;;;;7.20;2.85;;;20.40;99.90;;;;;;4967191;28;20565;-92